Time;durP1;ratioP1;P1;durP2;ratioP2;P2;SDS_P1;SDS_P2;PMS_P1;PMS_P2;Temp;Humidity;BMP_temperature;BMP_pressure;BME280_temperature;BME280_humidity;BME280_pressure;Samples;Min_cycle;Max_cycle;Signal;HPM_P1;HPM_P2
2021/01/23 00:01:29;;;;;;;26.30;15.63;;;4.10;99.90;;;;;;5061455;28;20025;-76
2021/01/23 00:03:55;;;;;;;17.90;9.75;;;4.10;99.90;;;;;;5061728;28;20442;-74
2021/01/23 00:06:21;;;;;;;15.65;9.77;;;4.10;99.90;;;;;;5063028;28;20029;-74
2021/01/23 00:08:46;;;;;;;14.15;8.02;;;4.10;99.90;;;;;;5049353;28;20097;-73
2021/01/23 00:11:12;;;;;;;13.82;7.95;;;4.10;99.90;;;;;;5057039;28;20057;-73
2021/01/23 00:13:37;;;;;;;14.20;8.93;;;4.20;99.90;;;;;;5040330;28;20041;-75
2021/01/23 00:16:03;;;;;;;11.90;7.93;;;4.10;99.90;;;;;;5055622;28;20025;-73
2021/01/23 00:18:29;;;;;;;13.85;7.50;;;4.10;99.90;;;;;;5051405;28;20053;-73
2021/01/23 00:20:54;;;;;;;10.52;6.90;;;4.20;99.90;;;;;;5050689;28;20110;-76
2021/01/23 00:23:20;;;;;;;13.90;7.53;;;4.20;99.90;;;;;;5045016;28;20092;-73
2021/01/23 00:25:46;;;;;;;9.43;6.85;;;4.20;99.90;;;;;;5056185;28;20481;-74
2021/01/23 00:28:12;;;;;;;11.68;7.22;;;4.20;99.90;;;;;;5053843;28;20108;-74
2021/01/23 00:30:37;;;;;;;9.95;6.68;;;4.30;99.90;;;;;;5059698;28;20433;-75
2021/01/23 00:33:03;;;;;;;11.27;7.05;;;;;;;;;;5059237;28;20452;-74
2021/01/23 00:35:34;;;;;;;12.45;7.50;;;4.40;99.90;;;;;;5046010;28;20286;-72
2021/01/23 00:38:00;;;;;;;9.80;6.25;;;4.50;99.90;;;;;;5048184;28;20053;-74
2021/01/23 00:40:25;;;;;;;15.30;7.43;;;4.60;99.90;;;;;;5064079;28;20063;-74
2021/01/23 00:42:51;;;;;;;13.38;7.20;;;4.60;99.90;;;;;;5059489;28;20044;-74
2021/01/23 00:45:17;;;;;;;14.05;8.35;;;4.60;99.90;;;;;;5041993;28;20037;-74
2021/01/23 00:47:43;;;;;;;14.48;7.25;;;;;;;;;;5058863;28;20041;-73
2021/01/23 00:50:09;;;;;;;12.35;7.32;;;;;;;;;;5055469;28;20098;-75
2021/01/23 00:52:35;;;;;;;10.82;6.57;;;4.60;99.90;;;;;;5051533;28;20059;-72
2021/01/23 00:55:01;;;;;;;13.68;8.35;;;4.60;99.90;;;;;;5061498;28;20033;-76
2021/01/23 00:57:27;;;;;;;13.35;7.45;;;4.60;99.90;;;;;;5051647;28;20044;-74
2021/01/23 00:59:52;;;;;;;11.77;7.90;;;4.70;99.90;;;;;;5068262;28;20112;-74
2021/01/23 01:02:18;;;;;;;14.02;7.43;;;4.70;99.90;;;;;;5067909;28;20067;-73
2021/01/23 01:04:43;;;;;;;12.63;7.82;;;4.70;99.90;;;;;;5049691;28;20032;-73
2021/01/23 01:07:12;;;;;;;11.63;7.03;;;4.70;99.90;;;;;;5045409;28;20101;-75
2021/01/23 01:09:37;;;;;;;10.32;6.60;;;4.70;99.90;;;;;;5050539;28;20025;-73
2021/01/23 01:12:03;;;;;;;14.30;8.32;;;4.70;99.90;;;;;;5058785;28;20025;-73
2021/01/23 01:14:29;;;;;;;12.70;8.50;;;4.90;99.90;;;;;;5044470;28;20036;-75
2021/01/23 01:16:54;;;;;;;15.95;8.65;;;4.90;99.90;;;;;;5052678;28;20021;-74
2021/01/23 01:19:20;;;;;;;11.95;8.35;;;5.00;99.90;;;;;;5051776;28;20088;-74
2021/01/23 01:21:46;;;;;;;13.02;9.00;;;;;;;;;;5043635;28;20021;-73
2021/01/23 01:24:12;;;;;;;13.00;7.68;;;5.10;99.90;;;;;;5060457;28;20388;-72
2021/01/23 01:26:37;;;;;;;12.52;7.35;;;5.10;99.90;;;;;;5041896;28;20021;-73
2021/01/23 01:29:05;;;;;;;10.57;6.82;;;5.10;99.90;;;;;;5049145;28;20431;-73
2021/01/23 01:31:30;;;;;;;12.23;7.35;;;5.10;99.90;;;;;;5054785;28;20358;-74
2021/01/23 01:33:56;;;;;;;13.90;7.60;;;5.20;99.90;;;;;;5059440;28;20032;-73
2021/01/23 01:36:21;;;;;;;15.68;7.22;;;5.10;99.90;;;;;;5051010;28;20025;-73
2021/01/23 01:38:49;;;;;;;13.73;7.93;;;5.10;99.90;;;;;;5049567;28;20021;-73
2021/01/23 01:41:15;;;;;;;14.27;7.22;;;5.00;99.90;;;;;;5048555;28;20036;-74
2021/01/23 01:43:44;;;;;;;20.50;8.00;;;;;;;;;;5045683;28;20033;-74
2021/01/23 01:46:13;;;;;;;13.27;7.88;;;4.70;99.90;;;;;;5061422;28;20058;-73
2021/01/23 01:48:39;;;;;;;11.02;6.75;;;4.60;99.90;;;;;;5049503;28;20024;-73
2021/01/23 01:51:05;;;;;;;12.00;6.55;;;;;;;;;;5058575;28;20499;-73
2021/01/23 01:53:30;;;;;;;11.25;7.10;;;4.40;99.90;;;;;;5059187;28;20014;-73
2021/01/23 01:55:56;;;;;;;9.15;6.90;;;4.30;99.90;;;;;;5061329;28;20036;-75
2021/01/23 01:58:22;;;;;;;12.60;6.97;;;4.20;99.90;;;;;;5054593;28;20032;-74
2021/01/23 02:00:47;;;;;;;12.15;7.07;;;4.20;99.90;;;;;;5059596;28;20044;-77
2021/01/23 02:03:38;;;;;;;12.00;7.50;;;4.20;99.90;;;;;;5064534;28;20037;-74
2021/01/23 02:06:32;;;;;;;13.07;7.90;;;4.20;99.90;;;;;;5038735;28;20052;-74
2021/01/23 02:09:41;;;;;;;10.40;6.63;;;4.10;99.90;;;;;;5065103;28;20029;-73
2021/01/23 02:12:32;;;;;;;10.68;7.18;;;4.10;99.90;;;;;;5056042;28;20110;-75
2021/01/23 02:15:08;;;;;;;11.40;6.32;;;4.00;99.90;;;;;;5058656;28;20032;-75
2021/01/23 02:17:40;;;;;;;14.48;7.32;;;4.10;99.90;;;;;;5050680;28;20025;-79
2021/01/23 02:20:12;;;;;;;12.90;7.47;;;4.00;99.90;;;;;;5051434;28;20059;-73
2021/01/23 02:23:11;;;;;;;14.65;6.85;;;4.00;99.90;;;;;;5055782;28;20029;-73
2021/01/23 02:26:02;;;;;;;12.48;6.32;;;3.90;99.90;;;;;;5054405;28;20044;-78
2021/01/23 02:29:02;;;;;;;11.60;6.60;;;3.90;99.90;;;;;;5046400;28;20033;-73
2021/01/23 02:31:32;;;;;;;10.40;7.18;;;3.90;99.90;;;;;;5061427;28;20414;-76
2021/01/23 02:34:01;;;;;;;13.68;7.38;;;3.80;99.90;;;;;;5065806;28;20032;-73
2021/01/23 02:36:28;;;;;;;10.23;7.03;;;3.90;99.90;;;;;;5069702;28;20025;-74
2021/01/23 02:38:54;;;;;;;12.70;6.65;;;3.90;99.90;;;;;;5039798;28;20041;-75
2021/01/23 02:41:20;;;;;;;11.18;6.55;;;3.90;99.90;;;;;;5055317;28;20033;-73
2021/01/23 02:43:46;;;;;;;11.25;7.40;;;3.90;99.90;;;;;;5064453;28;20090;-73
2021/01/23 02:46:14;;;;;;;11.43;7.95;;;3.90;99.90;;;;;;5063938;28;20041;-74
2021/01/23 02:48:40;;;;;;;10.82;8.10;;;3.90;99.90;;;;;;5053811;28;20052;-75
2021/01/23 02:51:11;;;;;;;10.95;7.88;;;3.80;99.90;;;;;;5045165;28;20056;-73
2021/01/23 02:53:38;;;;;;;9.45;6.60;;;3.80;99.90;;;;;;5049236;28;20117;-74
2021/01/23 02:56:09;;;;;;;10.20;7.07;;;3.90;99.90;;;;;;5053323;28;20029;-73
2021/01/23 02:58:35;;;;;;;10.25;7.18;;;3.90;99.90;;;;;;5059298;28;20021;-74
2021/01/23 03:01:04;;;;;;;12.05;7.90;;;3.90;99.90;;;;;;5033340;28;20040;-73
2021/01/23 03:03:31;;;;;;;11.32;8.18;;;3.90;99.90;;;;;;5050480;28;20114;-73
2021/01/23 03:06:01;;;;;;;10.57;7.30;;;3.90;99.90;;;;;;5058484;28;20040;-74
2021/01/23 03:08:27;;;;;;;9.23;6.80;;;3.90;99.90;;;;;;5052072;28;20031;-73
2021/01/23 03:10:55;;;;;;;13.77;7.82;;;4.00;99.90;;;;;;5054078;28;20100;-73
2021/01/23 03:13:20;;;;;;;9.38;6.55;;;4.00;99.90;;;;;;5061051;28;20044;-75
2021/01/23 03:15:46;;;;;;;12.93;7.07;;;4.10;99.90;;;;;;5059656;28;20025;-72
2021/01/23 03:18:11;;;;;;;9.60;7.03;;;4.20;99.90;;;;;;5034953;28;20082;-73
2021/01/23 03:20:37;;;;;;;10.07;7.20;;;4.10;99.90;;;;;;5057890;28;20095;-73
2021/01/23 03:23:03;;;;;;;12.43;6.78;;;4.00;99.90;;;;;;5062230;28;20370;-73
2021/01/23 03:25:29;;;;;;;14.20;7.88;;;4.00;99.90;;;;;;5057774;28;20029;-73
2021/01/23 03:27:56;;;;;;;13.07;8.82;;;4.00;99.90;;;;;;5061518;28;20061;-73
2021/01/23 03:30:22;;;;;;;11.88;7.15;;;4.00;99.90;;;;;;5060693;28;20057;-75
2021/01/23 03:32:49;;;;;;;10.80;7.70;;;4.00;99.90;;;;;;5048955;28;20096;-73
2021/01/23 03:35:15;;;;;;;10.57;7.18;;;4.00;99.90;;;;;;5053296;28;20171;-72
2021/01/23 03:37:42;;;;;;;12.73;7.32;;;4.00;99.90;;;;;;5055888;28;20067;-73
2021/01/23 03:40:08;;;;;;;12.48;7.07;;;4.00;99.90;;;;;;5059321;28;20071;-74
2021/01/23 03:42:34;;;;;;;11.05;7.68;;;;;;;;;;5057512;28;20100;-73
2021/01/23 03:45:01;;;;;;;8.95;7.18;;;4.00;99.90;;;;;;5054506;28;20041;-75
2021/01/23 03:47:26;;;;;;;11.05;6.97;;;4.10;99.90;;;;;;5051703;28;20017;-73
2021/01/23 03:49:52;;;;;;;11.02;7.30;;;4.00;99.90;;;;;;5047007;28;20029;-74
2021/01/23 03:52:18;;;;;;;10.98;7.28;;;4.00;99.90;;;;;;5050980;28;20108;-73
2021/01/23 03:54:43;;;;;;;11.30;7.00;;;4.00;99.90;;;;;;5054886;28;20025;-73
2021/01/23 03:57:09;;;;;;;9.20;6.97;;;4.00;99.90;;;;;;5032044;28;20041;-72
2021/01/23 03:59:35;;;;;;;10.65;7.68;;;4.00;99.90;;;;;;5049949;28;20060;-73
2021/01/23 04:02:01;;;;;;;12.35;7.90;;;;;;;;;;5047231;28;20041;-73
2021/01/23 04:04:27;;;;;;;9.07;6.68;;;4.00;99.90;;;;;;5055263;28;20044;-74
2021/01/23 04:06:52;;;;;;;12.80;7.00;;;3.90;99.90;;;;;;5050616;28;20034;-73
2021/01/23 04:09:18;;;;;;;14.25;7.47;;;3.90;99.90;;;;;;5052142;28;20108;-75
2021/01/23 04:11:43;;;;;;;12.88;7.50;;;3.90;99.90;;;;;;5061984;28;20021;-73
2021/01/23 04:14:09;;;;;;;12.35;7.30;;;3.90;99.90;;;;;;5061910;28;20048;-75
2021/01/23 04:16:35;;;;;;;11.40;7.57;;;3.90;99.90;;;;;;5047731;28;20036;-73
2021/01/23 04:19:00;;;;;;;11.32;7.50;;;3.90;99.90;;;;;;5054898;28;20039;-74
2021/01/23 04:21:26;;;;;;;10.63;7.45;;;3.90;99.90;;;;;;5071884;28;20025;-75
2021/01/23 04:23:51;;;;;;;12.18;7.35;;;3.90;99.90;;;;;;5062604;28;20029;-73
2021/01/23 04:26:17;;;;;;;12.52;7.55;;;3.80;99.90;;;;;;5057351;28;20037;-73
2021/01/23 04:28:42;;;;;;;11.10;6.57;;;3.90;99.90;;;;;;5061064;28;20021;-74
2021/01/23 04:31:08;;;;;;;12.63;7.55;;;3.90;99.90;;;;;;5054538;28;20423;-73
2021/01/23 04:33:36;;;;;;;13.48;8.45;;;3.90;99.90;;;;;;5064338;28;20029;-76
2021/01/23 04:36:02;;;;;;;13.40;7.93;;;3.90;99.90;;;;;;5062613;28;20097;-79
2021/01/23 04:38:30;;;;;;;13.18;7.50;;;3.90;99.90;;;;;;5062296;28;20059;-82
2021/01/23 04:40:56;;;;;;;12.75;6.88;;;3.90;99.90;;;;;;5061679;28;20389;-76
2021/01/23 04:43:23;;;;;;;16.45;7.82;;;3.90;99.90;;;;;;5064837;28;20067;-77
2021/01/23 04:45:49;;;;;;;10.95;7.43;;;3.90;99.90;;;;;;5060133;28;20127;-77
2021/01/23 04:48:18;;;;;;;10.90;7.53;;;3.90;99.90;;;;;;5054902;28;20075;-73
2021/01/23 04:50:44;;;;;;;12.55;8.13;;;3.90;99.90;;;;;;5051920;28;20032;-74
2021/01/23 04:53:10;;;;;;;14.27;7.63;;;3.80;99.90;;;;;;5056145;28;20094;-74
2021/01/23 04:55:35;;;;;;;11.68;7.43;;;3.90;99.90;;;;;;5057300;28;20568;-74
2021/01/23 04:58:02;;;;;;;11.23;7.35;;;3.90;99.90;;;;;;5060200;28;20063;-74
2021/01/23 05:00:27;;;;;;;11.48;8.15;;;3.90;99.90;;;;;;5043888;28;20024;-74
2021/01/23 05:03:01;;;;;;;12.73;7.18;;;3.80;99.90;;;;;;5043799;28;20079;-73
2021/01/23 05:05:27;;;;;;;13.98;7.22;;;3.90;99.90;;;;;;5062535;28;20033;-73
2021/01/23 05:07:53;;;;;;;13.05;7.45;;;3.90;99.90;;;;;;5046173;28;20377;-73
2021/01/23 05:10:23;;;;;;;12.10;7.60;;;3.90;99.90;;;;;;5044815;28;20021;-74
2021/01/23 05:12:56;;;;;;;12.43;8.32;;;3.90;99.90;;;;;;5060589;28;20075;-73
2021/01/23 05:15:27;;;;;;;13.20;7.93;;;3.90;99.90;;;;;;5064085;28;20025;-74
2021/01/23 05:17:59;;;;;;;10.80;6.90;;;4.00;99.90;;;;;;5056426;28;20539;-73
2021/01/23 05:20:42;;;;;;;11.75;7.45;;;4.00;99.90;;;;;;5055316;28;20053;-73
2021/01/23 05:23:18;;;;;;;12.63;7.47;;;4.00;99.90;;;;;;5052882;28;20108;-77
2021/01/23 05:25:47;;;;;;;13.52;8.15;;;3.90;99.90;;;;;;5046668;28;20041;-78
2021/01/23 05:28:23;;;;;;;11.18;7.72;;;3.90;99.90;;;;;;5038585;28;20025;-76
2021/01/23 05:30:51;;;;;;;13.15;7.55;;;4.00;99.90;;;;;;5048579;28;20040;-76
2021/01/23 05:33:22;;;;;;;12.30;7.78;;;3.90;99.90;;;;;;5051793;28;20036;-73
2021/01/23 05:35:57;;;;;;;11.00;7.60;;;3.90;99.90;;;;;;5058433;28;20044;-74
2021/01/23 05:38:29;;;;;;;11.35;8.20;;;3.90;99.90;;;;;;5061172;28;20049;-76
2021/01/23 05:40:58;;;;;;;11.43;7.28;;;3.90;99.90;;;;;;5059707;28;20030;-73
2021/01/23 05:43:40;;;;;;;14.57;10.30;;;3.90;99.90;;;;;;5051020;28;20052;-73
2021/01/23 05:46:08;;;;;;;12.32;8.60;;;3.90;99.90;;;;;;5065789;28;20098;-73
2021/01/23 05:48:35;;;;;;;10.32;7.20;;;3.80;99.90;;;;;;5062311;28;20075;-72
2021/01/23 05:51:01;;;;;;;14.10;7.65;;;3.90;99.90;;;;;;5066914;28;20029;-73
2021/01/23 05:53:28;;;;;;;13.95;8.68;;;4.00;99.90;;;;;;5067316;28;20024;-74
2021/01/23 05:55:54;;;;;;;12.80;8.02;;;4.10;99.90;;;;;;5064326;28;20040;-73
2021/01/23 05:58:20;;;;;;;15.48;11.40;;;4.10;99.90;;;;;;5060977;28;20527;-74
2021/01/23 06:00:48;;;;;;;11.30;7.82;;;4.10;99.90;;;;;;5058868;28;20030;-75
2021/01/23 06:03:13;;;;;;;13.75;7.97;;;4.10;99.90;;;;;;5064017;28;20032;-73
2021/01/23 06:05:39;;;;;;;13.45;8.88;;;4.10;99.90;;;;;;5066163;28;20044;-73
2021/01/23 06:08:05;;;;;;;12.13;8.52;;;4.20;99.90;;;;;;5063815;28;20033;-73
2021/01/23 06:10:32;;;;;;;12.02;8.00;;;4.10;99.90;;;;;;5060639;28;20115;-73
2021/01/23 06:12:58;;;;;;;12.07;8.48;;;4.20;99.90;;;;;;5060564;28;20372;-73
2021/01/23 06:15:36;;;;;;;11.48;8.18;;;4.80;99.90;;;;;;5052447;28;20036;-73
2021/01/23 06:18:26;;;;;;;12.20;8.48;;;4.20;99.90;;;;;;5064345;28;20067;-75
2021/01/23 06:20:56;;;;;;;14.43;8.02;;;4.20;99.90;;;;;;5045916;28;20061;-74
2021/01/23 06:23:47;;;;;;;16.20;8.77;;;4.20;99.90;;;;;;5065601;28;20032;-73
2021/01/23 06:26:13;;;;;;;13.82;8.70;;;4.20;99.90;;;;;;5050318;28;20025;-73
2021/01/23 06:28:39;;;;;;;13.27;8.10;;;4.20;99.90;;;;;;5063809;28;20068;-72
2021/01/23 06:31:23;;;;;;;13.75;8.15;;;4.20;99.90;;;;;;5052661;28;20026;-73
2021/01/23 06:33:52;;;;;;;13.50;8.38;;;4.30;99.90;;;;;;5060344;28;20021;-75
2021/01/23 06:36:19;;;;;;;14.43;8.88;;;4.40;99.90;;;;;;5060797;28;20025;-73
2021/01/23 06:39:08;;;;;;;14.20;9.68;;;4.30;99.90;;;;;;5069631;28;20025;-73
2021/01/23 06:41:37;;;;;;;15.73;10.63;;;4.30;99.90;;;;;;5059567;28;20081;-73
2021/01/23 06:44:06;;;;;;;17.27;9.40;;;4.40;99.90;;;;;;5044298;28;20025;-73
2021/01/23 06:46:41;;;;;;;23.05;12.25;;;4.40;99.90;;;;;;5057531;28;20123;-73
2021/01/23 06:49:11;;;;;;;14.43;9.73;;;4.40;99.90;;;;;;5040545;28;20374;-73
2021/01/23 06:51:40;;;;;;;13.63;8.95;;;4.50;99.90;;;;;;5060148;28;20033;-73
2021/01/23 06:54:19;;;;;;;17.40;10.68;;;4.50;99.90;;;;;;5047058;28;20112;-73
2021/01/23 06:56:53;;;;;;;16.00;9.35;;;4.50;99.90;;;;;;5050750;28;20112;-73
2021/01/23 06:59:27;;;;;;;15.32;9.27;;;4.60;99.90;;;;;;5027199;28;20025;-74
2021/01/23 07:02:07;;;;;;;15.13;9.52;;;4.50;99.90;;;;;;5052953;28;20392;-72
2021/01/23 07:04:53;;;;;;;19.27;11.77;;;4.60;99.90;;;;;;5037180;28;20034;-73
2021/01/23 07:07:19;;;;;;;20.42;10.73;;;4.50;99.90;;;;;;5052025;28;20095;-72
2021/01/23 07:09:51;;;;;;;17.70;10.93;;;4.50;99.90;;;;;;5050564;28;20060;-74
2021/01/23 07:12:38;;;;;;;22.02;11.82;;;4.50;99.90;;;;;;5055758;28;20024;-73
2021/01/23 07:15:07;;;;;;;22.38;11.60;;;4.50;99.90;;;;;;5046441;28;20052;-73
2021/01/23 07:17:35;;;;;;;20.60;11.68;;;4.60;99.90;;;;;;5042835;28;20029;-73
2021/01/23 07:20:11;;;;;;;16.55;10.35;;;4.60;99.90;;;;;;5049888;28;20505;-72
2021/01/23 07:22:42;;;;;;;27.13;16.13;;;4.70;99.90;;;;;;5052215;28;20040;-73
2021/01/23 07:25:16;;;;;;;17.52;10.65;;;4.60;99.90;;;;;;5056844;28;20034;-73
2021/01/23 07:27:44;;;;;;;16.73;10.82;;;4.60;99.90;;;;;;5055847;28;20167;-72
2021/01/23 07:30:12;;;;;;;16.90;10.80;;;4.40;99.90;;;;;;5046641;28;20052;-74
2021/01/23 07:32:45;;;;;;;18.02;12.40;;;4.40;99.90;;;;;;5056161;28;20045;-73
2021/01/23 07:35:12;;;;;;;20.88;11.95;;;4.30;99.90;;;;;;5043120;28;20124;-74
2021/01/23 07:37:44;;;;;;;17.25;10.48;;;4.50;99.90;;;;;;5059888;28;20024;-73
2021/01/23 07:40:12;;;;;;;17.23;10.95;;;4.20;99.90;;;;;;5058888;28;20020;-73
2021/01/23 07:42:39;;;;;;;25.23;14.45;;;4.00;99.90;;;;;;5041889;28;20051;-73
2021/01/23 07:45:12;;;;;;;25.55;15.57;;;4.00;99.90;;;;;;5056737;28;20061;-73
2021/01/23 07:47:37;;;;;;;26.20;17.70;;;4.00;99.90;;;;;;5059535;28;20078;-75
2021/01/23 07:50:08;;;;;;;26.80;15.88;;;3.90;99.90;;;;;;5061241;28;20119;-74
2021/01/23 07:52:34;;;;;;;25.75;15.13;;;3.80;99.90;;;;;;5054949;28;20483;-73
2021/01/23 07:55:00;;;;;;;26.77;15.07;;;3.80;99.90;;;;;;5057507;28;20067;-74
2021/01/23 07:57:25;;;;;;;19.80;11.55;;;3.70;99.90;;;;;;5042912;28;20021;-73
2021/01/23 07:59:53;;;;;;;20.80;12.20;;;;;;;;;;5057364;28;20059;-80
2021/01/23 08:02:18;;;;;;;17.25;10.48;;;3.60;99.90;;;;;;5065191;28;20738;-74
2021/01/23 08:04:49;;;;;;;20.02;10.18;;;3.60;99.90;;;;;;5048930;28;20033;-75
2021/01/23 08:07:32;;;;;;;16.48;9.93;;;3.50;99.90;;;;;;5055530;28;20047;-73
2021/01/23 08:10:08;;;;;;;18.73;10.63;;;3.40;99.90;;;;;;5039384;28;20022;-74
2021/01/23 08:12:35;;;;;;;25.98;13.40;;;3.50;99.90;;;;;;5052849;28;20025;-77
2021/01/23 08:15:00;;;;;;;20.20;11.98;;;3.50;99.90;;;;;;5058118;28;20021;-77
2021/01/23 08:17:46;;;;;;;27.17;14.68;;;3.40;99.90;;;;;;5050974;28;20033;-78
2021/01/23 08:20:17;;;;;;;23.52;15.05;;;3.20;99.90;;;;;;5055085;28;20037;-75
2021/01/23 08:23:03;;;;;;;25.43;15.97;;;3.20;99.90;;;;;;5036469;28;20116;-76
2021/01/23 08:25:42;;;;;;;26.30;15.38;;;3.20;99.90;;;;;;5056746;28;20079;-75
2021/01/23 08:28:07;;;;;;;27.85;15.10;;;3.20;99.90;;;;;;5053569;28;20029;-79
2021/01/23 08:30:36;;;;;;;21.40;12.60;;;3.20;99.90;;;;;;5049852;28;20025;-75
2021/01/23 08:33:10;;;;;;;20.58;12.73;;;3.20;99.90;;;;;;5058981;28;20021;-75
2021/01/23 08:35:39;;;;;;;22.40;12.00;;;3.20;99.90;;;;;;5051769;28;20057;-75
2021/01/23 08:38:06;;;;;;;22.88;12.68;;;3.10;99.90;;;;;;5046001;28;20052;-75
2021/01/23 08:40:31;;;;;;;17.35;11.80;;;3.20;99.90;;;;;;5053560;28;20082;-75
2021/01/23 08:42:57;;;;;;;22.55;11.75;;;3.20;99.90;;;;;;5042431;28;20033;-75
2021/01/23 08:45:24;;;;;;;27.45;12.32;;;3.30;99.90;;;;;;5035329;28;20484;-76
2021/01/23 08:47:50;;;;;;;24.20;12.65;;;3.20;99.90;;;;;;5042190;28;20021;-76
2021/01/23 08:50:16;;;;;;;20.20;11.70;;;3.30;99.90;;;;;;5045207;28;20425;-76
2021/01/23 08:52:42;;;;;;;19.90;11.93;;;3.30;99.90;;;;;;5027862;28;20043;-76
2021/01/23 08:55:09;;;;;;;23.38;12.95;;;3.30;99.90;;;;;;5046431;28;20132;-75
2021/01/23 08:57:35;;;;;;;18.80;11.98;;;3.30;99.90;;;;;;5038038;28;20041;-76
2021/01/23 09:00:01;;;;;;;21.30;12.65;;;3.30;99.90;;;;;;5045737;28;20448;-75
2021/01/23 09:02:26;;;;;;;18.67;10.60;;;3.20;99.90;;;;;;5060386;28;20701;-76
2021/01/23 09:04:53;;;;;;;20.40;11.63;;;3.30;99.90;;;;;;5062704;28;20029;-75
2021/01/23 09:07:19;;;;;;;21.58;12.80;;;3.30;99.90;;;;;;5061184;28;20039;-76
2021/01/23 09:09:46;;;;;;;18.27;12.52;;;3.30;99.90;;;;;;5054110;28;20072;-74
2021/01/23 09:12:11;;;;;;;19.40;10.60;;;3.30;99.90;;;;;;5053750;28;20043;-75
2021/01/23 09:14:38;;;;;;;18.27;10.82;;;3.20;99.90;;;;;;5059438;28;20093;-76
2021/01/23 09:17:04;;;;;;;16.55;9.63;;;3.20;99.90;;;;;;5050591;28;20315;-74
2021/01/23 09:19:29;;;;;;;21.95;12.25;;;3.20;99.90;;;;;;5047807;28;20048;-74
2021/01/23 09:21:55;;;;;;;19.77;11.52;;;3.20;99.90;;;;;;5043808;28;20093;-75
2021/01/23 09:24:21;;;;;;;18.13;10.80;;;3.10;99.90;;;;;;5042448;28;20024;-74
2021/01/23 09:26:50;;;;;;;18.13;10.50;;;;;;;;;;5041491;28;20485;-75
2021/01/23 09:29:16;;;;;;;21.20;12.30;;;3.00;99.90;;;;;;5045220;28;20385;-74
2021/01/23 09:31:43;;;;;;;27.35;15.20;;;3.00;99.90;;;;;;5042528;28;20021;-75
2021/01/23 09:34:11;;;;;;;24.67;15.05;;;;;;;;;;5044391;28;20044;-75
2021/01/23 09:36:38;;;;;;;22.92;14.18;;;2.80;99.90;;;;;;5049378;28;20037;-76
2021/01/23 09:39:03;;;;;;;24.23;14.98;;;2.80;99.90;;;;;;5049192;28;20025;-77
2021/01/23 09:41:29;;;;;;;29.33;15.40;;;;;;;;;;5036067;28;20146;-77
2021/01/23 09:43:56;;;;;;;24.77;15.65;;;2.80;99.90;;;;;;5045093;28;20043;-79
2021/01/23 09:46:22;;;;;;;24.38;13.95;;;2.80;99.90;;;;;;5035161;28;20129;-76
2021/01/23 09:48:48;;;;;;;25.42;14.48;;;;;;;;;;5037094;28;20100;-78
2021/01/23 09:51:13;;;;;;;25.35;15.90;;;2.80;99.90;;;;;;5032704;28;20048;-76
2021/01/23 09:53:39;;;;;;;28.45;17.23;;;2.70;99.90;;;;;;5044687;28;20061;-77
2021/01/23 09:56:05;;;;;;;25.92;15.65;;;2.80;99.90;;;;;;5044321;28;20650;-76
2021/01/23 09:58:31;;;;;;;27.02;16.63;;;2.80;99.90;;;;;;5042662;28;20220;-78
2021/01/23 10:00:57;;;;;;;27.75;14.73;;;2.80;99.90;;;;;;5038865;28;20675;-76
2021/01/23 10:03:28;;;;;;;25.90;16.63;;;2.40;99.90;;;;;;5027492;28;20047;-76
2021/01/23 10:05:54;;;;;;;;;;;2.90;99.90;;;;;;5025945;28;20037;-76
2021/01/23 10:08:19;;;;;;;27.10;16.20;;;2.80;99.90;;;;;;5036163;28;19908;-76
2021/01/23 10:10:48;;;;;;;34.08;18.50;;;;;;;;;;5042031;28;20029;-79
2021/01/23 10:13:14;;;;;;;29.83;17.80;;;;;;;;;;5022028;28;20435;-76
2021/01/23 10:15:40;;;;;;;31.23;18.80;;;2.90;99.90;;;;;;5041882;28;20034;-76
2021/01/23 10:18:07;;;;;;;26.65;18.75;;;3.00;99.90;;;;;;5043303;28;20041;-76
2021/01/23 10:20:33;;;;;;;29.83;18.00;;;2.90;99.90;;;;;;5026005;28;20045;-75
2021/01/23 10:22:59;;;;;;;30.60;18.73;;;2.80;99.90;;;;;;5043190;28;20025;-75
2021/01/23 10:25:25;;;;;;;27.58;18.00;;;2.90;99.90;;;;;;5033487;28;20037;-77
2021/01/23 10:27:50;;;;;;;30.02;17.15;;;2.80;99.90;;;;;;5032223;28;20033;-76
2021/01/23 10:30:17;;;;;;;31.98;17.65;;;2.90;99.90;;;;;;5035233;28;20024;-77
2021/01/23 10:32:43;;;;;;;29.08;17.58;;;3.00;99.90;;;;;;5045274;28;20044;-76
2021/01/23 10:35:10;;;;;;;28.25;17.88;;;3.00;99.90;;;;;;5028163;28;20021;-77
2021/01/23 10:37:39;;;;;;;28.23;16.38;;;3.00;99.90;;;;;;5034310;28;20041;-79
2021/01/23 10:40:05;;;;;;;26.75;16.63;;;3.10;99.90;;;;;;5042290;28;20025;-80
2021/01/23 10:42:30;;;;;;;29.75;15.32;;;3.10;99.90;;;;;;5051886;28;20071;-79
2021/01/23 10:44:57;;;;;;;26.15;14.73;;;;;;;;;;5044536;28;20065;-79
2021/01/23 10:47:23;;;;;;;22.80;13.48;;;3.10;99.90;;;;;;5027662;28;20071;-79
2021/01/23 10:49:49;;;;;;;25.58;15.10;;;3.00;99.90;;;;;;5043007;28;20478;-78
2021/01/23 10:52:15;;;;;;;22.20;13.68;;;;;;;;;;5042627;28;20025;-78
2021/01/23 10:54:41;;;;;;;17.67;11.95;;;;;;;;;;5046793;28;20028;-80
2021/01/23 10:57:07;;;;;;;20.23;12.45;;;3.10;99.90;;;;;;5047910;28;20033;-80
2021/01/23 10:59:33;;;;;;;15.93;10.43;;;3.10;99.90;;;;;;5037929;28;20071;-79
2021/01/23 11:01:59;;;;;;;19.05;11.30;;;3.10;99.90;;;;;;5020627;28;20025;-78
2021/01/23 11:04:25;;;;;;;19.08;10.82;;;3.10;99.90;;;;;;5047314;28;20051;-78
2021/01/23 11:07:07;;;;;;;19.25;9.80;;;3.10;99.90;;;;;;5025068;28;20119;-78
2021/01/23 11:09:34;;;;;;;15.85;10.35;;;3.10;99.90;;;;;;5038484;28;20033;-79
2021/01/23 11:12:00;;;;;;;17.20;9.25;;;3.00;99.90;;;;;;5032171;28;20033;-77
2021/01/23 11:14:25;;;;;;;19.77;10.75;;;3.20;99.90;;;;;;5047202;28;20032;-77
2021/01/23 11:16:51;;;;;;;15.75;9.73;;;3.20;99.90;;;;;;5043371;28;20061;-77
2021/01/23 11:19:17;;;;;;;14.35;8.02;;;3.20;99.90;;;;;;5049327;28;20051;-78
2021/01/23 11:21:46;;;;;;;13.60;9.57;;;;;;;;;;5056766;28;20140;-81
2021/01/23 11:24:12;;;;;;;14.50;8.35;;;;;;;;;;5045623;28;20123;-77
2021/01/23 11:26:45;;;;;;;14.60;8.88;;;3.20;99.90;;;;;;5045255;28;20045;-77
2021/01/23 11:29:11;;;;;;;17.30;8.48;;;3.30;99.90;;;;;;5048431;28;20033;-77
2021/01/23 11:31:37;;;;;;;13.60;6.80;;;3.20;99.90;;;;;;5046309;28;20021;-78
2021/01/23 11:34:03;;;;;;;12.55;7.72;;;3.30;99.90;;;;;;5044032;28;20105;-77
2021/01/23 11:36:30;;;;;;;12.88;7.45;;;3.30;99.90;;;;;;5062048;28;20313;-78
2021/01/23 11:38:57;;;;;;;13.32;6.60;;;3.40;99.90;;;;;;5034756;28;20063;-77
2021/01/23 11:41:23;;;;;;;11.25;6.93;;;;;;;;;;5047215;28;20116;-80
2021/01/23 11:43:49;;;;;;;12.90;7.10;;;;;;;;;;5047177;28;20037;-76
2021/01/23 11:46:15;;;;;;;15.38;6.43;;;;;;;;;;5046789;28;20212;-78
2021/01/23 11:48:40;;;;;;;12.10;5.78;;;3.40;99.90;;;;;;5048815;28;20044;-80
2021/01/23 11:51:06;;;;;;;12.75;5.65;;;3.30;99.90;;;;;;5031616;28;20017;-77
2021/01/23 11:53:32;;;;;;;10.20;5.20;;;;;;;;;;5047174;28;20033;-77
2021/01/23 11:55:58;;;;;;;10.77;6.72;;;;;;;;;;5047093;28;20021;-76
2021/01/23 11:58:24;;;;;;;10.02;6.03;;;;;;;;;;5043186;28;20401;-78
2021/01/23 12:00:50;;;;;;;9.45;6.07;;;3.50;99.90;;;;;;5045860;28;20029;-79
2021/01/23 12:03:15;;;;;;;10.68;5.82;;;3.50;99.90;;;;;;5047252;28;20036;-76
2021/01/23 12:05:41;;;;;;;12.35;5.70;;;3.60;99.90;;;;;;5044866;28;20038;-77
2021/01/23 12:08:07;;;;;;;15.52;6.25;;;3.70;99.90;;;;;;5049258;28;20085;-78
2021/01/23 12:10:33;;;;;;;10.70;5.45;;;3.60;99.90;;;;;;5046480;28;20028;-76
2021/01/23 12:12:58;;;;;;;10.18;5.07;;;3.70;99.90;;;;;;5049962;28;20556;-78
2021/01/23 12:15:24;;;;;;;8.07;4.22;;;3.80;99.90;;;;;;5048984;28;20048;-76
2021/01/23 12:17:52;;;;;;;11.80;5.18;;;4.00;99.90;;;;;;5048265;28;20040;-76
2021/01/23 12:20:17;;;;;;;15.43;7.80;;;4.00;99.90;;;;;;5038579;28;20060;-78
2021/01/23 12:22:43;;;;;;;17.15;7.13;;;4.00;99.90;;;;;;5050290;28;20492;-78
2021/01/23 12:25:10;;;;;;;11.93;5.13;;;4.00;99.90;;;;;;5031011;28;20110;-77
2021/01/23 12:27:36;;;;;;;9.70;5.35;;;4.00;99.90;;;;;;5048025;28;20036;-77
2021/01/23 12:30:13;;;;;;;13.25;7.43;;;4.00;99.90;;;;;;5047607;28;20029;-78
2021/01/23 12:32:39;;;;;;;9.77;5.43;;;;;;;;;;5042823;28;20028;-75
2021/01/23 12:35:09;;;;;;;10.63;5.22;;;4.10;99.90;;;;;;5044339;28;20053;-77
2021/01/23 12:37:36;;;;;;;12.48;6.50;;;4.10;99.90;;;;;;5043914;28;20084;-79
2021/01/23 12:40:04;;;;;;;14.20;7.43;;;4.10;99.90;;;;;;5048192;28;20033;-76
2021/01/23 12:42:30;;;;;;;13.82;6.80;;;4.20;99.90;;;;;;5042989;28;20029;-76
2021/01/23 12:44:56;;;;;;;12.48;7.30;;;4.60;99.90;;;;;;5044583;28;20140;-77
2021/01/23 12:47:22;;;;;;;18.95;9.70;;;4.20;99.90;;;;;;5042247;28;20029;-74
2021/01/23 12:49:48;;;;;;;17.00;8.10;;;4.20;99.90;;;;;;5043903;28;20116;-77
2021/01/23 12:52:13;;;;;;;15.38;9.40;;;4.20;99.90;;;;;;4995619;28;20652;-76
2021/01/23 12:54:46;;;;;;;16.33;7.25;;;;;;;;;;5039698;28;20030;-76
2021/01/23 12:57:18;;;;;;;15.90;10.20;;;4.10;99.90;;;;;;5042816;28;20072;-77
2021/01/23 12:59:44;;;;;;;14.55;7.97;;;4.10;99.90;;;;;;5038537;28;20029;-75